createdAt,value
2023-05-05T00:00:00.434Z,511.00
2023-05-05T00:01:00.418Z,508.00
2023-05-05T00:02:00.425Z,506.00
2023-05-05T00:03:00.491Z,505.00
2023-05-05T00:04:00.456Z,503.00
2023-05-05T00:05:00.397Z,502.00
2023-05-05T00:06:00.370Z,500.00
2023-05-05T00:07:00.370Z,499.00
2023-05-05T00:08:00.357Z,495.00
2023-05-05T00:09:00.389Z,500.00
2023-05-05T00:10:00.358Z,498.00
2023-05-05T00:11:00.382Z,497.00
2023-05-05T00:12:00.344Z,499.00
2023-05-05T00:13:00.347Z,498.00
2023-05-05T00:14:00.324Z,499.00
2023-05-05T00:15:00.333Z,499.00
2023-05-05T00:16:00.339Z,502.00
2023-05-05T00:17:00.391Z,506.00
2023-05-05T00:18:00.378Z,506.00
2023-05-05T00:19:00.313Z,506.00
2023-05-05T00:20:00.314Z,504.00
2023-05-05T00:21:00.296Z,505.00
2023-05-05T00:22:00.281Z,506.00
2023-05-05T00:23:00.339Z,508.00
2023-05-05T00:24:00.308Z,507.00
2023-05-05T00:25:00.247Z,507.00
2023-05-05T00:26:00.258Z,506.00
2023-05-05T00:27:00.231Z,507.00
2023-05-05T00:28:00.231Z,509.00
2023-05-05T00:29:00.285Z,510.00
2023-05-05T00:30:00.241Z,510.00
2023-05-05T00:31:00.302Z,510.00
2023-05-05T00:32:00.197Z,509.00
2023-05-05T00:33:00.262Z,508.00
2023-05-05T00:34:00.232Z,507.00
2023-05-05T00:35:00.182Z,508.00
2023-05-05T00:36:00.227Z,510.00
2023-05-05T00:37:00.214Z,509.00
2023-05-05T00:38:00.192Z,510.00
2023-05-05T00:39:00.192Z,512.00
2023-05-05T00:40:00.180Z,514.00
2023-05-05T00:41:00.270Z,513.00
2023-05-05T00:42:00.275Z,511.00
2023-05-05T00:43:00.322Z,511.00
2023-05-05T00:44:00.381Z,510.00
2023-05-05T00:45:00.438Z,513.00
2023-05-05T00:46:00.452Z,511.00
2023-05-05T00:47:00.508Z,507.00
2023-05-05T00:48:00.651Z,506.00
2023-05-05T00:49:00.594Z,505.00
2023-05-05T00:50:00.686Z,507.00
2023-05-05T00:51:00.687Z,508.00
2023-05-05T00:52:00.753Z,507.00
2023-05-05T00:53:00.788Z,506.00
2023-05-05T00:54:00.850Z,501.00
2023-05-05T00:55:00.896Z,501.00
2023-05-05T00:56:00.993Z,503.00
2023-05-05T00:57:00.994Z,506.00
2023-05-05T00:58:01.052Z,506.00
2023-05-05T00:59:01.123Z,509.00
2023-05-05T01:00:01.157Z,508.00
2023-05-05T01:01:01.174Z,509.00
2023-05-05T01:02:01.247Z,510.00
2023-05-05T01:03:01.482Z,510.00
2023-05-05T01:04:01.400Z,508.00
2023-05-05T01:05:01.412Z,505.00
2023-05-05T01:06:01.430Z,504.00
2023-05-05T01:07:01.478Z,506.00
2023-05-05T01:08:01.527Z,508.00
2023-05-05T01:09:01.614Z,509.00
2023-05-05T01:10:15.639Z,510.00
2023-05-05T01:11:02.636Z,508.00
2023-05-05T01:12:01.618Z,510.00
2023-05-05T01:13:01.623Z,511.00
2023-05-05T01:14:01.578Z,511.00
2023-05-05T01:15:01.614Z,510.00
2023-05-05T01:16:01.600Z,509.00
2023-05-05T01:17:01.544Z,510.00
2023-05-05T01:18:01.625Z,511.00
2023-05-05T01:19:01.562Z,510.00
2023-05-05T01:20:01.570Z,509.00
2023-05-05T01:21:01.576Z,506.00
2023-05-05T01:22:01.615Z,507.00
2023-05-05T01:23:01.641Z,508.00
2023-05-05T01:24:01.686Z,511.00
2023-05-05T01:25:01.842Z,511.00
2023-05-05T01:26:01.785Z,512.00
2023-05-05T01:27:01.827Z,514.00
2023-05-05T01:28:01.921Z,518.00
2023-05-05T01:29:01.976Z,518.00
2023-05-05T01:30:02.032Z,517.00
2023-05-05T01:31:02.040Z,516.00
2023-05-05T01:32:02.135Z,515.00
2023-05-05T01:33:02.179Z,516.00
2023-05-05T01:34:02.221Z,519.00
2023-05-05T01:35:02.248Z,519.00
2023-05-05T01:36:02.306Z,516.00
2023-05-05T01:37:02.375Z,513.00
2023-05-05T01:38:02.415Z,512.00
2023-05-05T01:39:02.487Z,511.00
2023-05-05T01:40:02.541Z,510.00
2023-05-05T01:41:02.572Z,512.00
2023-05-05T01:42:02.636Z,509.00
2023-05-05T01:43:02.709Z,509.00
2023-05-05T01:44:02.731Z,510.00
2023-05-05T01:45:02.803Z,510.00
2023-05-05T01:46:02.881Z,508.00
2023-05-05T01:47:02.915Z,508.00
2023-05-05T01:48:03.438Z,507.00
2023-05-05T01:49:03.013Z,511.00
2023-05-05T01:50:03.084Z,512.00
2023-05-05T01:51:03.186Z,512.00
2023-05-05T01:52:03.216Z,513.00
2023-05-05T01:53:03.328Z,513.00
2023-05-05T01:54:03.315Z,514.00
2023-05-05T01:55:03.350Z,513.00
2023-05-05T01:56:03.380Z,511.00
2023-05-05T01:57:03.446Z,512.00
2023-05-05T01:58:03.515Z,510.00
2023-05-05T01:59:03.545Z,509.00
2023-05-05T02:00:03.632Z,511.00
2023-05-05T02:01:03.750Z,512.00
2023-05-05T02:02:03.777Z,512.00
2023-05-05T02:03:03.781Z,511.00
2023-05-05T02:04:03.820Z,516.00
2023-05-05T02:05:03.870Z,516.00
2023-05-05T02:06:03.901Z,515.00
2023-05-05T02:07:03.931Z,513.00
2023-05-05T02:08:04.393Z,514.00
2023-05-05T02:09:04.053Z,516.00
2023-05-05T02:10:04.129Z,516.00
2023-05-05T02:11:04.129Z,516.00
2023-05-05T02:12:04.202Z,513.00
2023-05-05T02:13:04.392Z,511.00
2023-05-05T02:14:04.347Z,513.00
2023-05-05T02:15:04.368Z,513.00
2023-05-05T02:16:04.425Z,515.00
2023-05-05T02:17:04.470Z,520.00
2023-05-05T02:18:04.552Z,521.00
2023-05-05T02:19:04.544Z,520.00
2023-05-05T02:20:04.647Z,515.00
2023-05-05T02:21:04.667Z,518.00
2023-05-05T02:22:04.705Z,519.00
2023-05-05T02:23:04.771Z,519.00
2023-05-05T02:24:04.808Z,516.00
2023-05-05T02:25:04.891Z,514.00
2023-05-05T02:26:04.944Z,509.00
2023-05-05T02:27:04.980Z,511.00
2023-05-05T02:28:05.036Z,510.00
2023-05-05T02:29:05.049Z,511.00
2023-05-05T02:30:05.236Z,510.00
2023-05-05T02:31:05.202Z,510.00
2023-05-05T02:32:05.212Z,508.00
2023-05-05T02:33:05.465Z,507.00
2023-05-05T02:34:05.337Z,509.00
2023-05-05T02:35:05.370Z,509.00
2023-05-05T02:36:05.411Z,508.00
2023-05-05T02:37:05.484Z,508.00
2023-05-05T02:38:05.546Z,507.00
2023-05-05T02:39:05.563Z,508.00
2023-05-05T02:40:05.718Z,509.00
2023-05-05T02:41:05.686Z,508.00
2023-05-05T02:42:05.695Z,508.00
2023-05-05T02:43:05.803Z,509.00
2023-05-05T02:44:05.812Z,507.00
2023-05-05T02:45:05.859Z,503.00
2023-05-05T02:46:05.953Z,505.00
2023-05-05T02:47:06.894Z,507.00
2023-05-05T02:48:06.458Z,506.00
2023-05-05T02:49:06.059Z,507.00
2023-05-05T02:50:06.245Z,508.00
2023-05-05T02:51:06.178Z,506.00
2023-05-05T02:52:06.212Z,506.00
2023-05-05T02:53:06.234Z,503.00
2023-05-05T02:54:06.331Z,503.00
2023-05-05T02:55:06.414Z,503.00
2023-05-05T02:56:06.420Z,502.00
2023-05-05T02:57:06.480Z,503.00
2023-05-05T02:58:06.515Z,506.00
2023-05-05T02:59:06.594Z,506.00
2023-05-05T03:00:06.873Z,507.00
2023-05-05T03:01:06.743Z,506.00
2023-05-05T03:02:06.726Z,507.00
2023-05-05T03:03:06.895Z,510.00
2023-05-05T03:04:06.859Z,511.00
2023-05-05T03:05:06.869Z,510.00
2023-05-05T03:06:06.934Z,512.00
2023-05-05T03:07:06.971Z,516.00
2023-05-05T03:08:07.035Z,518.00
2023-05-05T03:09:07.078Z,516.00
2023-05-05T03:10:07.425Z,516.00
2023-05-05T03:11:07.218Z,516.00
2023-05-05T03:12:07.276Z,513.00
2023-05-05T03:13:07.437Z,512.00
2023-05-05T03:14:07.438Z,511.00
2023-05-05T03:15:07.475Z,510.00
2023-05-05T03:16:07.526Z,511.00
2023-05-05T03:17:07.560Z,511.00
2023-05-05T03:18:07.667Z,512.00
2023-05-05T03:19:07.685Z,513.00
2023-05-05T03:20:07.954Z,513.00
2023-05-05T03:21:07.820Z,511.00
2023-05-05T03:22:07.910Z,508.00
2023-05-05T03:23:07.955Z,509.00
2023-05-05T03:24:08.016Z,510.00
2023-05-05T03:25:08.045Z,511.00
2023-05-05T03:26:08.138Z,513.00
2023-05-05T03:27:08.190Z,512.00
2023-05-05T03:28:08.294Z,510.00
2023-05-05T03:29:08.306Z,511.00
2023-05-05T03:30:08.608Z,514.00
2023-05-05T03:31:08.478Z,517.00
2023-05-05T03:32:08.571Z,515.00
2023-05-05T03:33:08.637Z,517.00
2023-05-05T03:34:08.650Z,519.00
2023-05-05T03:35:08.693Z,518.00
2023-05-05T03:36:08.767Z,521.00
2023-05-05T03:37:08.826Z,517.00
2023-05-05T03:38:08.867Z,517.00
2023-05-05T03:39:08.941Z,516.00
2023-05-05T03:40:09.206Z,516.00
2023-05-05T03:41:09.044Z,518.00
2023-05-05T03:42:09.097Z,519.00
2023-05-05T03:43:09.184Z,520.00
2023-05-05T03:44:09.231Z,519.00
2023-05-05T03:45:09.365Z,518.00
2023-05-05T03:46:09.382Z,514.00
2023-05-05T03:47:09.465Z,516.00
2023-05-05T03:48:09.640Z,510.00
2023-05-05T03:49:09.546Z,507.00
2023-05-05T03:50:09.736Z,505.00
2023-05-05T03:51:09.672Z,506.00
2023-05-05T03:52:09.699Z,509.00
2023-05-05T03:53:09.943Z,515.00
2023-05-05T03:54:09.857Z,517.00
2023-05-05T03:55:09.898Z,516.00
2023-05-05T03:56:10.035Z,516.00
2023-05-05T03:57:10.059Z,515.00
2023-05-05T03:58:10.047Z,516.00
2023-05-05T03:59:10.094Z,515.00
2023-05-05T04:00:10.173Z,512.00
2023-05-05T04:01:10.225Z,511.00
2023-05-05T04:02:10.281Z,510.00
2023-05-05T04:03:10.460Z,514.00
2023-05-05T04:04:10.391Z,516.00
2023-05-05T04:05:10.402Z,515.00
2023-05-05T04:06:10.473Z,515.00
2023-05-05T04:07:10.477Z,514.00
2023-05-05T04:08:10.943Z,515.00
2023-05-05T04:09:10.575Z,515.00
2023-05-05T04:10:10.696Z,518.00
2023-05-05T04:11:10.657Z,518.00
2023-05-05T04:12:10.732Z,517.00
2023-05-05T04:13:10.954Z,517.00
2023-05-05T04:14:10.855Z,518.00
2023-05-05T04:15:10.897Z,514.00
2023-05-05T04:16:11.091Z,517.00
2023-05-05T04:17:11.045Z,517.00
2023-05-05T04:18:11.141Z,517.00
2023-05-05T04:19:11.172Z,516.00
2023-05-05T04:20:11.288Z,517.00
2023-05-05T04:21:11.291Z,517.00
2023-05-05T04:22:11.341Z,516.00
2023-05-05T04:23:11.390Z,515.00
2023-05-05T04:24:11.395Z,513.00
2023-05-05T04:25:11.435Z,513.00
2023-05-05T04:26:11.523Z,514.00
2023-05-05T04:27:11.528Z,518.00
2023-05-05T04:28:11.639Z,515.00
2023-05-05T04:29:11.640Z,517.00
2023-05-05T04:30:11.771Z,520.00
2023-05-05T04:31:11.954Z,521.00
2023-05-05T04:32:11.974Z,520.00
2023-05-05T04:33:11.969Z,518.00
2023-05-05T04:34:12.048Z,517.00
2023-05-05T04:35:12.116Z,518.00
2023-05-05T04:36:12.150Z,515.00
2023-05-05T04:37:12.233Z,512.00
2023-05-05T04:38:12.278Z,514.00
2023-05-05T04:39:12.337Z,513.00
2023-05-05T04:40:12.363Z,515.00
2023-05-05T04:41:12.415Z,517.00
2023-05-05T04:42:12.483Z,521.00
2023-05-05T04:43:12.552Z,524.00
2023-05-05T04:44:12.555Z,524.00
2023-05-05T04:45:12.566Z,525.00
2023-05-05T04:46:12.628Z,526.00
2023-05-05T04:47:14.569Z,525.00
2023-05-05T04:48:12.720Z,522.00
2023-05-05T04:49:12.738Z,526.00
2023-05-05T04:50:12.767Z,528.00
2023-05-05T04:51:12.818Z,523.00
2023-05-05T04:52:12.866Z,524.00
2023-05-05T04:53:12.921Z,527.00
2023-05-05T04:54:12.958Z,527.00
2023-05-05T04:55:12.940Z,529.00
2023-05-05T04:56:12.995Z,523.00
2023-05-05T04:57:13.009Z,520.00
2023-05-05T04:58:13.039Z,518.00
2023-05-05T04:59:13.024Z,517.00
2023-05-05T05:00:13.069Z,520.00
2023-05-05T05:01:13.002Z,520.00
2023-05-05T05:02:13.139Z,518.00
2023-05-05T05:03:13.120Z,518.00
2023-05-05T05:04:13.102Z,519.00
2023-05-05T05:05:13.119Z,522.00
2023-05-05T05:06:13.103Z,522.00
2023-05-05T05:07:13.103Z,523.00
2023-05-05T05:08:13.109Z,525.00
2023-05-05T05:09:13.123Z,525.00
2023-05-05T05:10:13.052Z,525.00
2023-05-05T05:11:13.092Z,525.00
2023-05-05T05:12:13.102Z,528.00
2023-05-05T05:13:13.276Z,530.00
2023-05-05T05:14:13.118Z,531.00
2023-05-05T05:15:13.090Z,532.00
2023-05-05T05:16:13.128Z,533.00
2023-05-05T05:17:13.120Z,535.00
2023-05-05T05:18:13.150Z,536.00
2023-05-05T05:19:13.119Z,534.00
2023-05-05T05:20:13.107Z,536.00
2023-05-05T05:21:13.132Z,535.00
2023-05-05T05:22:13.145Z,534.00
2023-05-05T05:23:13.198Z,534.00
2023-05-05T05:24:13.165Z,537.00
2023-05-05T05:25:13.167Z,538.00
2023-05-05T05:26:13.170Z,539.00
2023-05-05T05:27:13.190Z,537.00
2023-05-05T05:28:13.196Z,538.00
2023-05-05T05:29:13.187Z,538.00
2023-05-05T05:30:13.205Z,536.00
2023-05-05T05:31:13.183Z,537.00
2023-05-05T05:32:13.267Z,536.00
2023-05-05T05:33:13.190Z,541.00
2023-05-05T05:34:13.202Z,543.00
2023-05-05T05:35:13.226Z,543.00
2023-05-05T05:36:13.172Z,590.00
2023-05-05T05:37:13.229Z,589.00
2023-05-05T05:38:13.490Z,583.00
2023-05-05T05:39:13.246Z,578.00
2023-05-05T05:40:13.295Z,574.00
2023-05-05T05:41:13.362Z,574.00
2023-05-05T05:42:13.374Z,576.00
2023-05-05T05:43:13.472Z,575.00
2023-05-05T05:44:13.495Z,575.00
2023-05-05T05:45:13.547Z,574.00
2023-05-05T05:46:13.596Z,571.00
2023-05-05T05:47:13.660Z,577.00
2023-05-05T05:48:13.745Z,581.00
2023-05-05T05:49:13.798Z,583.00
2023-05-05T05:50:13.855Z,582.00
2023-05-05T05:51:13.895Z,585.00
2023-05-05T05:52:13.983Z,612.00
2023-05-05T05:53:14.054Z,619.00
2023-05-05T05:54:14.077Z,625.00
2023-05-05T05:55:14.108Z,631.00
2023-05-05T05:56:14.167Z,634.00
2023-05-05T05:57:14.229Z,643.00
2023-05-05T05:58:14.478Z,651.00
2023-05-05T05:59:14.326Z,659.00
2023-05-05T06:00:14.374Z,665.00
2023-05-05T06:01:14.431Z,673.00
2023-05-05T06:02:14.460Z,676.00
2023-05-05T06:03:14.836Z,684.00
2023-05-05T06:04:14.519Z,692.00
2023-05-05T06:05:14.554Z,696.00
2023-05-05T06:06:14.559Z,700.00
2023-05-05T06:07:14.582Z,705.00
2023-05-05T06:08:14.634Z,715.00
2023-05-05T06:09:14.628Z,725.00
2023-05-05T06:10:26.535Z,751.00
2023-05-05T06:11:15.640Z,758.00
2023-05-05T06:12:14.616Z,757.00
2023-05-05T06:13:14.703Z,703.00
2023-05-05T06:14:14.610Z,694.00
2023-05-05T06:15:14.608Z,690.00
2023-05-05T06:16:14.617Z,672.00
2023-05-05T06:17:14.575Z,659.00
2023-05-05T06:18:14.653Z,654.00
2023-05-05T06:19:14.996Z,654.00
2023-05-05T06:20:14.566Z,656.00
2023-05-05T06:21:14.602Z,653.00
2023-05-05T06:22:14.561Z,622.00
2023-05-05T06:23:14.572Z,605.00
2023-05-05T06:24:14.570Z,598.00
2023-05-05T06:25:14.563Z,594.00
2023-05-05T06:26:14.545Z,587.00
2023-05-05T06:27:14.657Z,586.00
2023-05-05T06:28:14.655Z,589.00
2023-05-05T06:29:15.019Z,585.00
2023-05-05T06:30:14.808Z,576.00
2023-05-05T06:31:14.880Z,584.00
2023-05-05T06:32:14.866Z,580.00
2023-05-05T06:33:14.966Z,575.00
2023-05-05T06:34:23.010Z,568.00
2023-05-05T06:35:15.002Z,565.00
2023-05-05T06:36:15.042Z,570.00
2023-05-05T06:37:15.024Z,569.00
2023-05-05T06:38:14.997Z,573.00
2023-05-05T06:39:16.038Z,576.00
2023-05-05T06:40:15.027Z,592.00
2023-05-05T06:41:15.004Z,606.00
2023-05-05T06:42:15.069Z,612.00
2023-05-05T06:43:15.084Z,621.00
2023-05-05T06:44:15.139Z,629.00
2023-05-05T06:45:15.165Z,635.00
2023-05-05T06:46:15.268Z,638.00
2023-05-05T06:47:15.257Z,643.00
2023-05-05T06:48:15.295Z,637.00
2023-05-05T06:49:15.348Z,661.00
2023-05-05T06:50:15.387Z,652.00
2023-05-05T06:51:15.542Z,646.00
2023-05-05T06:52:15.429Z,625.00
2023-05-05T06:53:15.507Z,620.00
2023-05-05T06:54:15.521Z,611.00
2023-05-05T06:55:15.592Z,685.00
2023-05-05T06:56:15.671Z,688.00
2023-05-05T06:57:15.710Z,685.00
2023-05-05T06:58:15.819Z,700.00
2023-05-05T06:59:15.852Z,718.00
2023-05-05T07:00:15.804Z,726.00
2023-05-05T07:01:15.879Z,729.00
2023-05-05T07:02:15.847Z,758.00
2023-05-05T07:03:15.989Z,767.00
2023-05-05T07:04:15.989Z,770.00
2023-05-05T07:05:15.935Z,771.00
2023-05-05T07:06:15.932Z,770.00
2023-05-05T07:07:15.946Z,769.00
2023-05-05T07:08:15.907Z,773.00
2023-05-05T07:09:17.087Z,790.00
2023-05-05T07:10:15.942Z,785.00
2023-05-05T07:11:15.914Z,786.00
2023-05-05T07:12:15.922Z,784.00
2023-05-05T07:13:15.905Z,780.00
2023-05-05T07:14:16.062Z,781.00
2023-05-05T07:15:26.730Z,781.00
2023-05-05T07:16:17.039Z,779.00
2023-05-05T07:17:15.917Z,779.00
2023-05-05T07:18:15.932Z,781.00
2023-05-05T07:19:15.911Z,781.00
2023-05-05T07:20:15.889Z,779.00
2023-05-05T07:21:15.897Z,782.00
2023-05-05T07:22:15.896Z,782.00
2023-05-05T07:23:15.903Z,778.00
2023-05-05T07:24:15.881Z,780.00
2023-05-05T07:25:15.895Z,784.00
2023-05-05T07:26:15.862Z,782.00
2023-05-05T07:27:15.911Z,780.00
2023-05-05T07:28:15.937Z,783.00
2023-05-05T07:29:16.013Z,786.00
2023-05-05T07:30:18.492Z,784.00
2023-05-05T07:31:16.074Z,787.00
2023-05-05T07:32:16.087Z,787.00
2023-05-05T07:33:16.522Z,793.00
2023-05-05T07:34:16.053Z,795.00
2023-05-05T07:35:16.019Z,801.00
2023-05-05T07:36:16.022Z,803.00
2023-05-05T07:37:15.996Z,802.00
2023-05-05T07:38:16.016Z,800.00
2023-05-05T07:39:23.669Z,798.00
2023-05-05T07:40:16.972Z,799.00
2023-05-05T07:41:16.003Z,799.00
2023-05-05T07:42:15.963Z,801.00
2023-05-05T07:43:15.933Z,802.00
2023-05-05T07:44:15.981Z,804.00
2023-05-05T07:45:15.962Z,809.00
2023-05-05T07:46:15.971Z,804.00
2023-05-05T07:47:15.937Z,802.00
2023-05-05T07:48:15.931Z,797.00
2023-05-05T07:49:15.973Z,793.00
2023-05-05T07:50:15.963Z,793.00
2023-05-05T07:51:15.900Z,785.00
2023-05-05T07:52:15.899Z,747.00
2023-05-05T07:53:15.915Z,769.00
2023-05-05T07:54:15.873Z,773.00
2023-05-05T07:55:15.907Z,731.00
2023-05-05T07:56:15.839Z,745.00
2023-05-05T07:57:15.873Z,740.00
2023-05-05T07:58:15.850Z,742.00
2023-05-05T07:59:15.885Z,736.00
2023-05-05T08:00:15.865Z,722.00
2023-05-05T08:01:15.845Z,709.00
2023-05-05T08:02:15.939Z,697.00
2023-05-05T08:03:15.884Z,674.00
2023-05-05T08:04:15.948Z,666.00
2023-05-05T08:05:15.880Z,663.00
2023-05-05T08:06:15.932Z,653.00
2023-05-05T08:07:15.955Z,635.00
2023-05-05T08:08:16.049Z,625.00
2023-05-05T08:09:16.101Z,605.00
2023-05-05T08:10:16.166Z,599.00
2023-05-05T08:11:16.195Z,598.00
2023-05-05T08:12:16.267Z,596.00
2023-05-05T08:13:16.470Z,591.00
2023-05-05T08:14:16.569Z,588.00
2023-05-05T08:15:16.556Z,582.00
2023-05-05T08:16:16.585Z,579.00
2023-05-05T08:17:16.631Z,577.00
2023-05-05T08:18:16.756Z,576.00
2023-05-05T08:19:28.210Z,574.00
2023-05-05T08:20:17.710Z,572.00
2023-05-05T08:21:16.703Z,566.00
2023-05-05T08:22:16.650Z,568.00
2023-05-05T08:23:16.699Z,568.00
2023-05-05T08:24:17.089Z,568.00
2023-05-05T08:25:16.632Z,565.00
2023-05-05T08:26:16.637Z,560.00
2023-05-05T08:27:16.651Z,557.00
2023-05-05T08:28:16.662Z,558.00
2023-05-05T08:29:17.068Z,554.00
2023-05-05T08:30:16.768Z,552.00
2023-05-05T08:31:16.878Z,552.00
2023-05-05T08:32:16.877Z,550.00
2023-05-05T08:33:16.982Z,552.00
2023-05-05T08:34:17.531Z,550.00
2023-05-05T08:35:17.064Z,552.00
2023-05-05T08:36:17.016Z,547.00
2023-05-05T08:37:17.095Z,548.00
2023-05-05T08:38:17.052Z,547.00
2023-05-05T08:39:17.245Z,547.00
2023-05-05T08:40:17.174Z,551.00
2023-05-05T08:41:17.233Z,552.00
2023-05-05T08:42:29.066Z,556.00
2023-05-05T08:43:18.265Z,553.00
2023-05-05T08:44:17.334Z,554.00
2023-05-05T08:45:17.216Z,552.00
2023-05-05T08:46:17.248Z,554.00
2023-05-05T08:47:17.182Z,553.00
2023-05-05T08:48:17.233Z,550.00
2023-05-05T08:49:17.216Z,550.00
2023-05-05T08:50:17.303Z,553.00
2023-05-05T08:51:17.204Z,560.00
2023-05-05T08:52:17.238Z,565.00
2023-05-05T08:53:17.212Z,569.00
2023-05-05T08:54:17.574Z,570.00
2023-05-05T08:55:17.298Z,574.00
2023-05-05T08:56:17.445Z,574.00
2023-05-05T08:57:17.368Z,573.00
2023-05-05T08:58:18.084Z,568.00
2023-05-05T08:59:17.591Z,654.00
2023-05-05T09:00:17.586Z,644.00
2023-05-05T09:01:17.770Z,648.00
2023-05-05T09:02:17.815Z,720.00
2023-05-05T09:03:17.789Z,778.00
2023-05-05T09:04:17.803Z,843.00
2023-05-05T09:05:17.861Z,804.00
2023-05-05T09:06:18.004Z,784.00
2023-05-05T09:07:24.952Z,809.00
2023-05-05T09:08:17.868Z,838.00
2023-05-05T09:09:17.886Z,867.00
2023-05-05T09:10:17.833Z,858.00
2023-05-05T09:11:17.889Z,882.00
2023-05-05T09:12:17.871Z,890.00
2023-05-05T09:13:18.017Z,907.00
2023-05-05T09:14:17.867Z,939.00
2023-05-05T09:15:17.878Z,932.00
2023-05-05T09:16:17.875Z,913.00
2023-05-05T09:17:17.835Z,909.00
2023-05-05T09:18:17.849Z,906.00
2023-05-05T09:19:18.100Z,960.00
2023-05-05T09:20:17.826Z,967.00
2023-05-05T09:21:17.809Z,967.00
2023-05-05T09:22:17.956Z,961.00
2023-05-05T09:23:17.769Z,951.00
2023-05-05T09:24:17.785Z,958.00
2023-05-05T09:25:17.885Z,963.00
2023-05-05T09:26:17.737Z,966.00
2023-05-05T09:27:17.738Z,977.00
2023-05-05T09:28:17.767Z,976.00
2023-05-05T09:29:17.758Z,969.00
2023-05-05T09:30:17.761Z,970.00
2023-05-05T09:31:17.773Z,964.00
2023-05-05T09:32:17.702Z,976.00
2023-05-05T09:33:17.684Z,990.00
2023-05-05T09:34:17.690Z,996.00
2023-05-05T09:35:17.708Z,992.00
2023-05-05T09:36:17.663Z,982.00
2023-05-05T09:37:17.678Z,990.00
2023-05-05T09:38:17.730Z,996.00
2023-05-05T09:39:18.094Z,1004.00
2023-05-05T09:40:17.657Z,1006.00
2023-05-05T09:41:17.632Z,997.00
2023-05-05T09:42:17.640Z,1013.00
2023-05-05T09:43:17.654Z,1009.00
2023-05-05T09:44:17.611Z,1011.00
2023-05-05T09:45:17.667Z,1031.00
2023-05-05T09:46:17.626Z,1043.00
2023-05-05T09:47:28.952Z,882.00
2023-05-05T09:48:18.622Z,953.00
2023-05-05T09:49:17.590Z,961.00
2023-05-05T09:50:17.607Z,1036.00
2023-05-05T09:51:17.622Z,1118.00
2023-05-05T09:52:17.640Z,1170.00
2023-05-05T09:53:17.586Z,1198.00
2023-05-05T09:54:17.689Z,1218.00
2023-05-05T09:55:17.564Z,1235.00
2023-05-05T09:56:17.560Z,1249.00
2023-05-05T09:57:17.536Z,1260.00
2023-05-05T09:58:17.606Z,1266.00
2023-05-05T09:59:17.553Z,1273.00
2023-05-05T10:00:17.574Z,1279.00
2023-05-05T10:01:17.545Z,1282.00
2023-05-05T10:02:17.584Z,1289.00
2023-05-05T10:03:17.613Z,1287.00
2023-05-05T10:04:17.658Z,1290.00
2023-05-05T10:05:18.166Z,1296.00
2023-05-05T10:06:17.811Z,1292.00
2023-05-05T10:07:17.835Z,1308.00
2023-05-05T10:08:17.936Z,1319.00
2023-05-05T10:09:17.969Z,1320.00
2023-05-05T10:10:18.266Z,1321.00
2023-05-05T10:11:18.079Z,1320.00
2023-05-05T10:12:18.167Z,1325.00
2023-05-05T10:13:18.392Z,1336.00
2023-05-05T10:14:19.093Z,1346.00
2023-05-05T10:15:18.599Z,1352.00
2023-05-05T10:16:18.412Z,1363.00
2023-05-05T10:17:18.424Z,1362.00
2023-05-05T10:18:18.559Z,1362.00
2023-05-05T10:19:18.504Z,1367.00
2023-05-05T10:20:18.599Z,1361.00
2023-05-05T10:21:18.628Z,1367.00
2023-05-05T10:22:18.652Z,1366.00
2023-05-05T10:23:18.770Z,1364.00
2023-05-05T10:24:18.770Z,1373.00
2023-05-05T10:25:19.130Z,1388.00
2023-05-05T10:26:19.080Z,1402.00
2023-05-05T10:27:19.024Z,1405.00
2023-05-05T10:28:19.050Z,1382.00
2023-05-05T10:29:19.080Z,1371.00
2023-05-05T10:30:19.604Z,1372.00
2023-05-05T10:31:25.783Z,1363.00
2023-05-05T10:32:46.687Z,1365.00
2023-05-05T10:33:31.642Z,1381.00
2023-05-05T10:34:20.280Z,1386.00
2023-05-05T10:35:19.176Z,1387.00
2023-05-05T10:36:19.168Z,1382.00
2023-05-05T10:37:19.197Z,1386.00
2023-05-05T10:38:19.166Z,1385.00
2023-05-05T10:39:19.187Z,1390.00
2023-05-05T10:40:19.622Z,1389.00
2023-05-05T10:41:19.156Z,1325.00
2023-05-05T10:42:19.200Z,1402.00
2023-05-05T10:43:19.123Z,1387.00
2023-05-05T10:44:19.126Z,1315.00
2023-05-05T10:45:19.133Z,1278.00
2023-05-05T10:46:19.127Z,1250.00
2023-05-05T10:47:19.097Z,1240.00
2023-05-05T10:48:19.170Z,1229.00
2023-05-05T10:49:19.064Z,1208.00
2023-05-05T10:50:19.133Z,1184.00
2023-05-05T10:51:31.026Z,1174.00
2023-05-05T10:52:20.091Z,1157.00
2023-05-05T10:53:19.064Z,1141.00
2023-05-05T10:54:19.073Z,1094.00
2023-05-05T10:55:19.106Z,1084.00
2023-05-05T10:56:19.047Z,1066.00
2023-05-05T10:57:19.068Z,1044.00
2023-05-05T10:58:19.088Z,1016.00
2023-05-05T10:59:19.029Z,995.00
2023-05-05T11:00:19.099Z,980.00
2023-05-05T11:01:19.029Z,953.00
2023-05-05T11:02:19.021Z,921.00
2023-05-05T11:03:19.099Z,915.00
2023-05-05T11:04:19.020Z,902.00
2023-05-05T11:05:19.138Z,881.00
2023-05-05T11:06:18.990Z,869.00
2023-05-05T11:07:18.985Z,850.00
2023-05-05T11:08:18.961Z,840.00
2023-05-05T11:09:18.932Z,828.00
2023-05-05T11:10:19.166Z,816.00
2023-05-05T11:11:18.923Z,799.00
2023-05-05T11:12:18.946Z,789.00
2023-05-05T11:13:19.169Z,774.00
2023-05-05T11:14:19.039Z,764.00
2023-05-05T11:15:19.114Z,752.00
2023-05-05T11:16:19.032Z,738.00
2023-05-05T11:17:19.041Z,726.00
2023-05-05T11:18:19.068Z,720.00
2023-05-05T11:19:19.109Z,709.00
2023-05-05T11:20:19.649Z,684.00
2023-05-05T11:21:19.208Z,679.00
2023-05-05T11:22:19.195Z,680.00
2023-05-05T11:23:19.212Z,680.00
2023-05-05T11:24:19.250Z,679.00
2023-05-05T11:25:19.668Z,675.00
2023-05-05T11:26:19.329Z,667.00
2023-05-05T11:27:19.315Z,657.00
2023-05-05T11:28:19.431Z,647.00
2023-05-05T11:29:19.375Z,642.00
2023-05-05T11:30:19.502Z,636.00
2023-05-05T11:31:19.816Z,628.00
2023-05-05T11:32:19.582Z,621.00
2023-05-05T11:33:19.558Z,620.00
2023-05-05T11:34:19.576Z,616.00
2023-05-05T11:35:19.687Z,612.00
2023-05-05T11:36:19.643Z,610.00
2023-05-05T11:37:19.666Z,611.00
2023-05-05T11:38:19.807Z,610.00
2023-05-05T11:39:19.781Z,604.00
2023-05-05T11:40:19.783Z,641.00
2023-05-05T11:41:19.829Z,671.00
2023-05-05T11:42:19.832Z,696.00
2023-05-05T11:43:19.857Z,745.00
2023-05-05T11:44:19.860Z,761.00
2023-05-05T11:45:20.159Z,780.00
2023-05-05T11:46:20.065Z,813.00
2023-05-05T11:47:19.953Z,825.00
2023-05-05T11:48:19.998Z,828.00
2023-05-05T11:49:19.957Z,831.00
2023-05-05T11:50:19.951Z,845.00
2023-05-05T11:51:19.966Z,870.00
2023-05-05T11:52:19.967Z,922.00
2023-05-05T11:53:20.006Z,922.00
2023-05-05T11:54:20.029Z,935.00
2023-05-05T11:55:20.046Z,947.00
2023-05-05T11:56:20.095Z,962.00
2023-05-05T11:57:20.149Z,972.00
2023-05-05T11:58:20.144Z,982.00
2023-05-05T11:59:20.210Z,993.00
2023-05-05T12:00:20.220Z,995.00
2023-05-05T12:01:20.235Z,1005.00
2023-05-05T12:02:20.409Z,1011.00
2023-05-05T12:03:20.387Z,1023.00
2023-05-05T12:04:20.310Z,1028.00
2023-05-05T12:05:20.658Z,1033.00
2023-05-05T12:06:20.316Z,1049.00
2023-05-05T12:07:20.376Z,1060.00
2023-05-05T12:08:20.412Z,1069.00
2023-05-05T12:09:20.498Z,1071.00
2023-05-05T12:10:20.691Z,1083.00
2023-05-05T12:11:20.568Z,1093.00
2023-05-05T12:12:20.623Z,1088.00
2023-05-05T12:13:20.741Z,1087.00
2023-05-05T12:14:20.733Z,1093.00
2023-05-05T12:15:21.149Z,1098.00
2023-05-05T12:16:20.885Z,1107.00
2023-05-05T12:17:20.938Z,1113.00
2023-05-05T12:18:21.160Z,1116.00
2023-05-05T12:19:21.131Z,1134.00
2023-05-05T12:20:21.086Z,1128.00
2023-05-05T12:21:21.104Z,1125.00
2023-05-05T12:22:21.206Z,1133.00
2023-05-05T12:23:21.249Z,1131.00
2023-05-05T12:24:21.338Z,1130.00
2023-05-05T12:25:21.357Z,1757.00